Time;durP1;ratioP1;P1;durP2;ratioP2;P2;SDS_P1;SDS_P2;PMS_P1;PMS_P2;Temp;Humidity;BMP_temperature;BMP_pressure;BME280_temperature;BME280_humidity;BME280_pressure;Samples;Min_cycle;Max_cycle;Signal;HPM_P1;HPM_P2
2022/03/15 00:01:50;;;;;;;3.75;1.05;;;;;;;7.36;71.67;101006.25;12208685;19;20060;-82
2022/03/15 00:05:52;;;;;;;2.47;1.08;;;;;;;7.34;71.71;101000.94;12206908;19;20027;-83
2022/03/15 00:09:54;;;;;;;3.13;1.63;;;;;;;7.34;71.43;100984.50;12185554;19;20357;-85
2022/03/15 00:13:57;;;;;;;4.05;1.30;;;;;;;7.35;71.56;100999.91;12201165;19;20078;-84
2022/03/15 00:17:59;;;;;;;5.68;1.70;;;;;;;7.36;71.37;100998.84;12201264;19;20014;-84
2022/03/15 00:22:10;;;;;;;3.88;1.13;;;;;;;7.38;71.28;100994.03;12180692;19;20063;-84
2022/03/15 00:26:15;;;;;;;5.35;1.40;;;;;;;7.40;71.12;100997.41;12203582;19;20050;-83
2022/03/15 00:30:18;;;;;;;5.85;1.38;;;;;;;7.40;71.27;100999.28;12175374;19;20476;-83
2022/03/15 00:34:20;;;;;;;4.00;1.70;;;;;;;7.40;71.04;101002.03;12197205;19;20015;-83
2022/03/15 00:38:22;;;;;;;3.30;1.13;;;;;;;7.43;71.14;101004.38;12202357;19;20109;-85
2022/03/15 00:42:26;;;;;;;2.88;1.73;;;;;;;7.43;71.59;101010.72;12175328;19;20015;-84
2022/03/15 00:46:32;;;;;;;2.65;1.17;;;;;;;7.43;71.36;100998.91;12204739;19;20683;-84
2022/03/15 00:50:36;;;;;;;3.05;1.35;;;;;;;7.42;71.17;100987.09;12194605;19;20357;-83
2022/03/15 00:54:38;;;;;;;5.63;1.38;;;;;;;7.42;70.97;100991.72;12180126;19;20614;-84
2022/03/15 00:58:39;;;;;;;5.07;1.50;;;;;;;7.42;70.96;100997.22;12189747;19;20011;-84
2022/03/15 01:02:43;;;;;;;2.90;1.40;;;;;;;7.42;70.81;100981.59;12209865;19;20433;-84
2022/03/15 01:06:45;;;;;;;2.63;1.23;;;;;;;7.40;71.22;100969.13;12187979;19;20078;-85
2022/03/15 01:10:47;;;;;;;4.35;1.60;;;;;;;7.40;71.04;100967.22;12190160;19;20338;-85
2022/03/15 01:14:49;;;;;;;2.90;1.55;;;;;;;7.41;71.00;100970.84;12195983;19;20010;-85
2022/03/15 01:18:53;;;;;;;2.95;1.85;;;;;;;7.41;71.05;100962.63;12177900;19;20003;-85
2022/03/15 01:22:55;;;;;;;2.83;1.35;;;;;;;7.42;71.24;100958.81;12196929;19;20083;-85
2022/03/15 01:26:58;;;;;;;5.43;1.55;;;;;;;7.41;70.78;100957.13;12192973;19;20110;-84
2022/03/15 01:31:00;;;;;;;2.38;1.50;;;;;;;7.42;71.40;100959.66;12179955;19;20022;-86
2022/03/15 01:35:04;;;;;;;6.15;2.10;;;;;;;7.42;71.40;100953.34;12204949;19;20032;-85
2022/03/15 01:39:07;;;;;;;5.22;1.45;;;;;;;7.40;71.55;100938.97;12206880;19;19998;-85
2022/03/15 01:43:08;;;;;;;4.63;1.63;;;;;;;7.38;71.42;100944.66;12185003;19;20011;-85
2022/03/15 01:47:10;;;;;;;5.55;1.60;;;;;;;7.38;71.25;100952.06;12203185;19;20014;-84
2022/03/15 01:51:14;;;;;;;3.63;1.55;;;;;;;7.35;71.29;100935.97;12179316;19;20002;-86
2022/03/15 01:55:18;;;;;;;2.78;1.75;;;;;;;7.31;71.62;100928.16;12197661;19;20007;-85
2022/03/15 01:59:20;;;;;;;5.13;1.98;;;;;;;7.29;71.57;100943.13;12202503;19;20010;-85
2022/03/15 02:03:21;;;;;;;5.18;1.85;;;;;;;7.29;71.58;100934.91;12175604;19;20019;-86
2022/03/15 02:07:23;;;;;;;6.20;2.05;;;;;;;7.26;71.57;100938.91;12207125;19;20372;-86
2022/03/15 02:11:26;;;;;;;4.82;1.60;;;;;;;7.23;71.79;100939.31;12198671;19;20018;-86
2022/03/15 02:15:28;;;;;;;4.35;1.80;;;;;;;7.21;71.80;100938.63;12175741;19;20002;-86
2022/03/15 02:19:30;;;;;;;3.20;2.08;;;;;;;7.21;72.02;100935.91;12203329;19;20419;-85
2022/03/15 02:23:33;;;;;;;4.10;1.60;;;;;;;7.20;72.07;100936.13;12201699;19;20520;-86
2022/03/15 02:27:34;;;;;;;5.63;1.75;;;;;;;7.16;72.37;100918.34;12179579;19;20066;-86
2022/03/15 02:31:36;;;;;;;4.22;2.38;;;;;;;7.09;72.68;100926.53;12199862;19;20125;-86
2022/03/15 02:35:48;;;;;;;3.97;2.10;;;;;;;7.08;72.96;100925.69;12191562;19;20014;-87
2022/03/15 02:39:50;;;;;;;4.85;2.10;;;;;;;7.03;73.15;100924.59;12176652;19;20108;-84
2022/03/15 02:43:56;;;;;;;8.35;2.88;;;;;;;6.93;73.65;100926.81;12196715;19;20018;-85
2022/03/15 02:47:58;;;;;;;5.07;2.67;;;;;;;6.71;73.39;100923.28;12194176;19;20745;-85
2022/03/15 02:51:59;;;;;;;6.93;2.92;;;;;;;6.51;73.13;100923.09;12176794;19;20014;-86
2022/03/15 02:56:01;;;;;;;6.15;2.67;;;;;;;6.30;74.62;100908.34;12196723;19;20087;-85
2022/03/15 03:00:04;;;;;;;6.90;3.25;;;;;;;6.29;74.82;100919.50;12212477;19;20066;-86
2022/03/15 03:04:06;;;;;;;9.68;3.20;;;;;;;6.29;75.35;100909.41;12196239;19;20018;-85
2022/03/15 03:08:08;;;;;;;6.57;3.00;;;;;;;6.18;76.25;100911.81;12220575;19;20010;-85
2022/03/15 03:12:15;;;;;;;7.22;3.22;;;;;;;6.11;76.28;100909.84;12212805;19;20101;-85
2022/03/15 03:16:20;;;;;;;5.65;2.47;;;;;;;6.08;76.69;100895.72;12212116;19;20009;-86
2022/03/15 03:20:24;;;;;;;6.82;2.85;;;;;;;6.06;77.02;100892.31;12215702;19;20036;-85
2022/03/15 03:24:28;;;;;;;7.13;2.22;;;;;;;6.02;77.65;100891.03;12194761;19;20009;-85
2022/03/15 03:28:37;;;;;;;5.97;1.98;;;;;;;5.96;78.23;100891.78;12208869;19;20079;-85
2022/03/15 03:32:41;;;;;;;3.92;2.15;;;;;;;5.92;78.88;100885.84;12205706;19;20015;-85
2022/03/15 03:36:42;;;;;;;7.10;2.40;;;;;;;5.93;79.34;100880.19;12183566;19;20074;-84
2022/03/15 03:41:04;;;;;;;4.38;2.38;;;;;;;5.96;79.82;100878.13;12207610;19;20014;-85
2022/03/15 03:45:06;;;;;;;7.17;2.00;;;;;;;6.00;79.40;100877.50;12211019;19;20010;-85
2022/03/15 03:49:08;;;;;;;7.93;2.20;;;;;;;6.04;79.89;100880.72;12183501;19;20763;-85
2022/03/15 03:53:10;;;;;;;4.65;2.13;;;;;;;6.12;79.74;100875.13;12204443;19;20003;-85
2022/03/15 03:57:11;;;;;;;4.10;1.50;;;;;;;6.18;80.15;100882.53;12183714;19;20027;-86
2022/03/15 04:01:13;;;;;;;4.90;1.75;;;;;;;6.26;79.96;100876.94;12208134;19;20006;-84
2022/03/15 04:05:15;;;;;;;4.35;1.50;;;;;;;6.26;80.75;100856.94;12207910;19;20070;-85
2022/03/15 04:09:20;;;;;;;3.70;1.85;;;;;;;6.38;79.56;100858.94;12189173;19;20011;-85
2022/03/15 04:13:22;;;;;;;5.35;1.67;;;;;;;6.56;78.91;100857.63;12205678;19;20500;-83
2022/03/15 04:17:25;;;;;;;4.57;1.60;;;;;;;6.73;78.74;100867.25;12206627;19;20435;-84
2022/03/15 04:21:26;;;;;;;;;;;;;;;6.68;78.26;100880.69;12198176;19;20010;-83
2022/03/15 04:25:28;;;;;;;6.80;3.00;;;;;;;6.47;77.67;100878.00;12199037;19;19923;-85
2022/03/15 04:29:30;;;;;;;6.17;3.60;;;;;;;6.30;77.94;100878.25;12210016;19;20038;-85
2022/03/15 04:33:32;;;;;;;7.87;4.63;;;;;;;6.27;78.73;100873.16;12176137;19;20033;-84
2022/03/15 04:37:33;;;;;;;6.07;3.10;;;;;;;6.28;78.97;100874.88;12205420;19;20040;-84
2022/03/15 04:41:35;;;;;;;6.07;2.50;;;;;;;6.26;80.03;100870.63;12204254;19;20011;-85
2022/03/15 04:45:37;;;;;;;5.47;2.20;;;;;;;6.26;79.97;100876.09;12178518;19;20544;-83
2022/03/15 04:49:38;;;;;;;4.55;2.28;;;;;;;6.25;80.46;100869.78;12200025;19;20006;-86
2022/03/15 04:53:40;;;;;;;6.63;2.92;;;;;;;6.27;80.47;100859.47;12200633;19;20099;-84
2022/03/15 04:57:42;;;;;;;4.75;2.58;;;;;;;6.25;80.81;100863.47;12177247;19;20078;-85
2022/03/15 05:01:44;;;;;;;5.80;2.25;;;;;;;6.20;81.29;100844.88;12201638;19;20003;-85
2022/03/15 05:05:46;;;;;;;5.20;2.28;;;;;;;6.18;81.38;100849.69;12200455;19;20768;-84
2022/03/15 05:14:08;;;;;;;6.43;3.00;;;;;;;6.08;81.75;100841.00;12193427;19;20074;-85
2022/03/15 05:18:09;;;;;;;6.35;2.67;;;;;;;6.02;82.12;100841.78;12201390;19;20069;-84
2022/03/15 05:22:11;;;;;;;4.70;2.47;;;;;;;5.98;82.21;100834.97;12187315;19;20086;-85
2022/03/15 05:26:15;;;;;;;5.68;2.00;;;;;;;6.00;82.34;100838.38;12197847;19;20007;-85
2022/03/15 05:30:17;;;;;;;4.18;2.25;;;;;;;6.00;82.29;100832.91;12170951;19;20777;-84
2022/03/15 05:34:19;;;;;;;6.18;1.90;;;;;;;6.01;82.35;100832.72;12197558;19;20105;-84
2022/03/15 05:38:20;;;;;;;4.57;1.80;;;;;;;6.05;82.71;100827.69;12196094;19;20066;-81
2022/03/15 05:42:22;;;;;;;5.85;2.00;;;;;;;6.10;82.28;100827.97;12180607;19;20026;-83
2022/03/15 05:46:24;;;;;;;3.92;1.48;;;;;;;6.10;82.49;100826.06;12197845;19;20010;-83
2022/03/15 05:50:26;;;;;;;4.60;1.90;;;;;;;6.09;82.57;100815.31;12191380;19;20508;-84
2022/03/15 05:54:28;;;;;;;2.70;1.55;;;;;;;6.07;82.84;100812.78;12175458;19;20018;-81
2022/03/15 05:58:30;;;;;;;7.25;1.80;;;;;;;6.09;83.09;100807.09;12200011;19;20013;-81
2022/03/15 06:02:32;;;;;;;2.72;1.50;;;;;;;6.11;83.36;100803.13;12202770;19;20140;-82
2022/03/15 06:06:34;;;;;;;4.50;1.60;;;;;;;6.18;83.75;100796.88;12169978;19;20013;-81
2022/03/15 06:10:36;;;;;;;4.07;1.60;;;;;;;6.25;82.96;100797.78;12170552;19;20014;-81
2022/03/15 06:14:38;;;;;;;2.47;1.40;;;;;;;6.31;83.24;100803.31;12201335;19;20082;-80
2022/03/15 06:18:40;;;;;;;;;;;;;;;6.49;82.19;100794.59;12178873;19;20078;-79
2022/03/15 06:22:43;;;;;;;2.58;1.42;;;;;;;6.73;80.92;100797.94;12206680;19;19950;-80
2022/03/15 06:26:46;;;;;;;3.17;1.33;;;;;;;6.97;79.88;100791.97;12201283;19;20074;-79
2022/03/15 06:30:47;;;;;;;2.80;1.67;;;;;;;7.23;78.78;100780.28;12179027;19;20010;-80
2022/03/15 06:34:50;;;;;;;2.67;1.45;;;;;;;7.46;77.51;100785.44;12198239;19;20010;-81
2022/03/15 06:38:53;;;;;;;4.32;2.53;;;;;;;7.71;76.75;100782.16;12219442;19;20086;-80
2022/03/15 06:42:56;;;;;;;4.25;1.55;;;;;;;7.86;75.70;100763.59;12196067;19;20007;-80
2022/03/15 06:46:57;;;;;;;2.33;1.50;;;;;;;8.04;75.10;100765.72;12211340;19;20006;-80
2022/03/15 06:50:59;;;;;;;3.63;1.50;;;;;;;8.20;74.60;100772.69;12214363;19;20378;-81
2022/03/15 06:55:07;;;;;;;4.75;1.83;;;;;;;8.40;73.24;100770.81;12194369;19;20002;-81
2022/03/15 06:59:19;;;;;;;4.93;1.50;;;;;;;8.53;71.85;100775.44;12218909;19;20074;-80
2022/03/15 07:03:21;;;;;;;3.13;1.60;;;;;;;8.63;71.12;100770.38;12202324;19;20480;-81
2022/03/15 07:07:23;;;;;;;5.63;1.80;;;;;;;8.72;70.53;100773.75;12211587;19;20007;-80
2022/03/15 07:11:25;;;;;;;5.30;2.30;;;;;;;8.83;70.58;100775.84;12218234;19;20031;-81
2022/03/15 07:15:28;;;;;;;4.77;1.90;;;;;;;8.85;68.21;100759.97;12186356;19;20083;-79
2022/03/15 07:19:31;;;;;;;5.07;2.08;;;;;;;8.97;69.13;100764.81;12217576;19;20015;-81
2022/03/15 07:23:33;;;;;;;3.75;1.90;;;;;;;9.09;69.10;100763.91;12212346;19;20011;-81
2022/03/15 07:27:35;;;;;;;3.08;1.63;;;;;;;9.19;68.45;100754.34;12189590;19;20031;-80
2022/03/15 07:31:37;;;;;;;3.63;1.60;;;;;;;9.28;68.24;100756.66;12209315;19;20027;-80
2022/03/15 07:35:38;;;;;;;9.68;1.98;;;;;;;9.29;65.83;100763.84;12208910;19;20050;-82
2022/03/15 07:39:41;;;;;;;4.65;1.90;;;;;;;9.36;66.01;100770.16;12186808;19;20410;-80
2022/03/15 07:43:43;;;;;;;5.65;2.05;;;;;;;9.50;65.84;100770.94;12214800;19;20010;-80
2022/03/15 07:47:52;;;;;;;7.03;2.40;;;;;;;9.66;65.76;100761.31;12194903;19;20011;-80
2022/03/15 07:51:57;;;;;;;7.15;3.00;;;;;;;9.67;64.93;100763.03;12189117;19;20011;-81
2022/03/15 07:56:47;;;;;;;8.23;2.47;;;;;;;9.67;63.86;100760.28;12199142;19;20492;-81
2022/03/15 08:01:21;;;;;;;6.00;1.95;;;;;;;9.64;63.23;100746.97;12136572;19;20011;-80
2022/03/15 08:05:27;;;;;;;5.53;2.20;;;;;;;9.80;63.57;100754.69;12210809;19;20333;-81
2022/03/15 08:09:29;;;;;;;7.43;2.10;;;;;;;10.12;63.69;100742.81;12190041;19;20015;-80
2022/03/15 08:13:34;;;;;;;6.97;2.00;;;;;;;10.30;62.31;100739.31;12204900;19;20496;-82
2022/03/15 08:17:37;;;;;;;5.80;2.13;;;;;;;10.52;61.42;100734.22;12210855;19;20006;-81
2022/03/15 08:21:40;;;;;;;6.25;2.38;;;;;;;10.62;61.09;100734.53;12188524;19;20066;-80
2022/03/15 08:31:10;;;;;;;6.97;2.70;;;;;;;10.82;60.88;100721.38;12204896;19;20505;-81
2022/03/15 08:36:06;;;;;;;7.13;2.78;;;;;;;10.79;60.45;100723.75;12192421;19;20010;-81
2022/03/15 08:40:55;;;;;;;6.40;2.80;;;;;;;10.94;59.74;100724.22;12187592;19;20033;-81
2022/03/15 08:45:18;;;;;;;8.65;2.63;;;;;;;10.96;59.10;100719.31;12175303;19;20114;-80
2022/03/15 08:53:38;;;;;;;6.80;2.95;;;;;;;10.70;59.49;100721.28;12206311;19;20022;-80
2022/03/15 08:57:42;;;;;;;6.80;2.85;;;;;;;10.70;59.13;100725.97;12182739;19;20405;-80
2022/03/15 09:01:44;;;;;;;8.77;3.47;;;;;;;10.57;59.58;100715.94;12197100;19;20034;-81
2022/03/15 09:05:48;;;;;;;8.43;3.42;;;;;;;10.52;60.19;100731.47;12195508;19;20011;-81
2022/03/15 09:09:54;;;;;;;9.10;4.50;;;;;;;10.16;63.53;100720.09;12184022;19;20025;-81
2022/03/15 09:13:58;;;;;;;8.30;4.50;;;;;;;10.01;64.34;100714.91;12206022;19;20391;-81
2022/03/15 09:18:20;;;;;;;7.05;4.55;;;;;;;9.75;66.24;100695.84;12207177;19;20010;-80
2022/03/15 09:22:25;;;;;;;10.07;5.15;;;;;;;9.65;66.80;100690.84;12182622;19;20022;-81
2022/03/15 09:26:27;;;;;;;11.95;5.90;;;;;;;9.65;67.27;100696.34;12195410;19;20047;-80
2022/03/15 09:30:30;;;;;;;14.27;5.73;;;;;;;9.87;66.93;100688.56;12181852;19;20472;-80
2022/03/15 09:34:34;;;;;;;14.45;4.85;;;;;;;10.15;66.39;100673.50;12202299;19;20386;-80
2022/03/15 09:38:39;;;;;;;10.02;4.50;;;;;;;10.16;65.51;100670.50;12201278;19;20006;-79
2022/03/15 09:42:42;;;;;;;8.70;4.10;;;;;;;10.32;64.34;100663.63;12181451;19;20025;-80
2022/03/15 09:46:52;;;;;;;10.30;4.05;;;;;;;10.52;63.85;100657.06;12198407;19;20043;-80
2022/03/15 09:51:01;;;;;;;7.28;3.92;;;;;;;10.59;63.32;100652.31;12202674;19;20485;-80
2022/03/15 09:55:24;;;;;;;7.43;3.70;;;;;;;10.51;62.93;100639.69;12182664;19;20006;-80
2022/03/15 09:59:34;;;;;;;8.05;3.72;;;;;;;10.56;63.19;100636.22;12212742;19;20074;-79
2022/03/15 10:03:36;;;;;;;9.77;3.33;;;;;;;10.63;63.16;100621.31;12187404;19;20031;-79
2022/03/15 10:07:39;;;;;;;9.30;3.13;;;;;;;10.71;62.89;100612.72;12202500;19;20341;-79
2022/03/15 10:11:47;;;;;;;5.82;3.30;;;;;;;10.83;62.86;100603.69;12204855;19;20259;-79
2022/03/15 10:16:31;;;;;;;9.20;3.80;;;;;;;10.77;62.86;100604.59;12169565;19;20011;-79
2022/03/15 10:22:10;;;;;;;;;;;;;;;;;;;;;
2022/03/15 10:31:51;;;;;;;10.68;3.70;;;;;;;10.37;65.82;100649.16;12088339;19;2004564;-80
2022/03/15 10:35:56;;;;;;;6.88;4.22;;;;;;;10.02;67.05;100633.16;12199357;19;20007;-81
2022/03/15 10:39:59;;;;;;;9.82;4.28;;;;;;;9.88;67.91;100604.09;12189696;19;20011;-80
2022/03/15 10:44:04;;;;;;;12.80;6.43;;;;;;;9.86;68.34;100601.53;12207661;19;20082;-81
2022/03/15 10:48:13;;;;;;;10.00;5.90;;;;;;;9.78;69.40;100601.81;12193081;19;20010;-81
2022/03/15 10:52:31;;;;;;;9.68;5.82;;;;;;;9.72;70.79;100602.72;12181735;19;20014;-80
2022/03/15 10:56:34;;;;;;;8.60;5.07;;;;;;;9.64;71.24;100616.75;12186927;19;20031;-79
2022/03/15 11:00:39;;;;;;;12.95;5.78;;;;;;;9.46;72.67;100621.16;12173402;19;20038;-80
2022/03/15 11:04:48;;;;;;;10.98;5.85;;;;;;;9.28;74.17;100612.78;12193686;19;20025;-80
2022/03/15 11:08:49;;;;;;;14.40;5.68;;;;;;;9.25;74.83;100602.22;12206815;19;20018;-79
2022/03/15 11:13:06;;;;;;;13.20;6.25;;;;;;;9.08;75.31;100599.19;12191983;19;20003;-78
2022/03/15 11:17:25;;;;;;;15.05;7.07;;;;;;;8.94;76.84;100592.06;12201279;19;20015;-79
2022/03/15 11:21:32;;;;;;;13.65;6.88;;;;;;;8.87;76.56;100589.38;12184976;19;20024;-79
2022/03/15 11:25:37;;;;;;;16.40;8.57;;;;;;;8.75;79.41;100580.13;12213529;19;20758;-79
2022/03/15 11:29:40;;;;;;;14.88;7.65;;;;;;;8.84;81.75;100548.59;12213633;19;20601;-79
2022/03/15 11:33:45;;;;;;;;;;;;;;;8.84;84.07;100545.84;12190589;19;20007;-80
2022/03/15 11:37:48;;;;;;;13.50;7.63;;;;;;;8.83;83.99;100533.13;12214364;19;20002;-80
2022/03/15 11:41:50;;;;;;;;;;;;;;;8.80;86.58;100514.34;12213910;19;20054;-80
2022/03/15 11:46:03;;;;;;;12.20;6.95;;;;;;;8.98;85.46;100497.94;12204026;19;19915;-81
2022/03/15 11:50:20;;;;;;;12.82;6.90;;;;;;;9.13;82.70;100503.09;12232568;19;20048;-79
2022/03/15 11:54:44;;;;;;;14.55;7.10;;;;;;;9.18;82.87;100485.94;12197854;19;20472;-81
2022/03/15 11:58:55;;;;;;;11.55;7.35;;;;;;;9.45;83.63;100470.06;12215163;19;20010;-79
2022/03/15 12:03:07;;;;;;;13.05;7.10;;;;;;;9.56;84.79;100472.91;12222049;19;20014;-80
2022/03/15 12:07:11;;;;;;;13.73;7.10;;;;;;;9.47;84.11;100463.25;12195007;19;20007;-79
2022/03/15 12:11:26;;;;;;;14.95;7.00;;;;;;;9.55;85.45;100427.22;12227331;19;20013;-80
2022/03/15 12:15:36;;;;;;;13.50;7.40;;;;;;;9.75;86.03;100413.19;12196196;19;20391;-79
2022/03/15 12:19:47;;;;;;;17.13;7.85;;;;;;;9.86;85.61;100395.09;12221053;19;20034;-79
2022/03/15 12:23:50;;;;;;;12.85;8.25;;;;;;;9.80;86.44;100383.09;12214036;19;20038;-79
2022/03/15 12:27:52;;;;;;;16.08;9.82;;;;;;;9.65;86.48;100368.03;12181816;19;20014;-78
2022/03/15 12:31:56;;;;;;;18.33;10.90;;;;;;;9.45;88.00;100363.59;12208404;19;20003;-81
2022/03/15 12:36:06;;;;;;;16.85;8.95;;;;;;;9.43;87.70;100363.00;12196587;19;20027;-79
2022/03/15 12:40:10;;;;;;;15.10;8.63;;;;;;;9.40;88.01;100346.97;12186349;19;20019;-80
2022/03/15 12:44:12;;;;;;;16.08;9.90;;;;;;;9.27;89.28;100342.44;12206420;19;20027;-80
2022/03/15 12:48:35;;;;;;;14.65;8.32;;;;;;;9.03;89.29;100324.94;12188181;19;20043;-78
2022/03/15 12:52:49;;;;;;;15.27;9.88;;;;;;;8.88;90.42;100316.22;12204443;19;20030;-78
2022/03/15 12:56:52;;;;;;;22.98;10.27;;;;;;;8.82;91.66;100320.69;12205374;19;20019;-78
2022/03/15 13:00:56;;;;;;;16.45;9.70;;;;;;;8.70;91.59;100306.03;12185803;19;20030;-77
2022/03/15 13:05:09;;;;;;;19.67;11.50;;;;;;;8.61;92.48;100288.13;12200911;19;20748;-78
2022/03/15 13:09:25;;;;;;;14.68;9.18;;;;;;;8.55;91.61;100294.53;12190419;19;20007;-77
2022/03/15 13:13:29;;;;;;;15.90;9.38;;;;;;;8.39;92.65;100291.28;12206540;19;20006;-78
2022/03/15 13:17:46;;;;;;;16.45;8.88;;;;;;;8.33;93.49;100302.28;12202505;19;20034;-77
2022/03/15 13:21:49;;;;;;;18.85;10.55;;;;;;;8.14;95.60;100306.84;12185144;19;20017;-78
2022/03/15 13:25:54;;;;;;;19.55;10.43;;;;;;;7.98;95.06;100327.44;12194757;19;20015;-78
2022/03/15 13:30:11;;;;;;;18.02;9.20;;;;;;;7.96;96.64;100352.34;12201391;19;20015;-78
2022/03/15 13:34:13;;;;;;;21.75;11.48;;;;;;;7.95;97.18;100380.03;12170634;19;20010;-78
2022/03/15 13:38:22;;;;;;;25.08;11.25;;;;;;;7.89;97.55;100389.97;12203883;19;20017;-78
2022/03/15 13:42:32;;;;;;;22.15;12.95;;;;;;;7.85;97.20;100398.84;12202968;19;20046;-79
2022/03/15 13:46:39;;;;;;;26.17;13.00;;;;;;;7.76;96.94;100379.91;12192629;19;19999;-79
2022/03/15 13:50:57;;;;;;;25.02;12.88;;;;;;;7.74;99.71;100342.78;12175046;19;20010;-78
2022/03/15 13:55:01;;;;;;;27.85;14.95;;;;;;;7.84;100.00;100301.97;12198044;19;20383;-78
2022/03/15 13:59:08;;;;;;;24.92;14.20;;;;;;;7.90;100.00;100284.63;12176176;19;20018;-78
2022/03/15 14:03:09;;;;;;;20.58;11.38;;;;;;;7.93;100.00;100275.97;12192653;19;20089;-78
2022/03/15 14:07:22;;;;;;;19.08;11.95;;;;;;;7.91;100.00;100282.72;12192875;19;20022;-78
2022/03/15 14:11:35;;;;;;;19.42;10.70;;;;;;;7.85;100.00;100279.00;12177809;19;20010;-79
2022/03/15 14:15:37;;;;;;;21.80;11.52;;;;;;;7.87;100.00;100276.84;12196614;19;20031;-79
2022/03/15 14:19:46;;;;;;;18.00;11.15;;;;;;;7.87;100.00;100267.78;12194622;19;20070;-78
2022/03/15 14:23:56;;;;;;;20.27;10.80;;;;;;;7.84;100.00;100273.72;12174011;19;20011;-78
2022/03/15 14:27:59;;;;;;;20.35;11.40;;;;;;;7.82;100.00;100289.53;12190819;19;20094;-78
2022/03/15 14:32:08;;;;;;;20.95;10.38;;;;;;;7.85;100.00;100300.06;12172969;19;20405;-78
2022/03/15 14:36:10;;;;;;;19.20;11.27;;;;;;;7.81;100.00;100282.38;12203329;19;20015;-78
2022/03/15 14:40:14;;;;;;;19.77;11.20;;;;;;;7.86;100.00;100297.13;12217731;19;20006;-78
2022/03/15 14:44:17;;;;;;;21.48;11.45;;;;;;;7.82;100.00;100284.06;12192308;19;20090;-79
2022/03/15 14:48:30;;;;;;;16.80;10.50;;;;;;;7.80;100.00;100280.72;12201599;19;20461;-79
2022/03/15 14:52:35;;;;;;;19.63;12.00;;;;;;;7.68;100.00;100267.69;12201640;19;20401;-79
2022/03/15 14:56:38;;;;;;;24.63;13.55;;;;;;;7.64;100.00;100260.09;12184247;19;20014;-79
2022/03/15 15:00:48;;;;;;;22.02;13.35;;;;;;;7.67;100.00;100267.88;12212850;19;20035;-80
2022/03/15 15:04:53;;;;;;;24.73;13.20;;;;;;;7.73;100.00;100262.38;12213295;19;20010;-80
2022/03/15 15:09:01;;;;;;;19.42;11.65;;;;;;;7.76;100.00;100264.69;12222062;19;20003;-80
2022/03/15 15:13:03;;;;;;;22.38;12.35;;;;;;;7.83;100.00;100250.09;12221011;19;20559;-80
2022/03/15 15:17:05;;;;;;;23.77;12.48;;;;;;;7.88;100.00;100248.38;12184877;19;20014;-80
2022/03/15 15:21:08;;;;;;;23.27;13.15;;;;;;;7.92;100.00;100249.59;12207797;19;20007;-80
2022/03/15 15:25:15;;;;;;;19.60;11.95;;;;;;;7.94;100.00;100254.84;12210795;19;20020;-80
2022/03/15 15:29:17;;;;;;;;;;;;;;;7.84;100.00;100255.34;12184258;19;20428;-80
2022/03/15 15:33:19;;;;;;;23.77;12.52;;;;;;;7.80;100.00;100254.09;12204640;19;19914;-79
2022/03/15 15:37:21;;;;;;;23.02;11.82;;;;;;;7.74;100.00;100255.81;12213409;19;20031;-80
2022/03/15 15:41:31;;;;;;;27.48;13.82;;;;;;;7.72;100.00;100249.72;12182089;19;20027;-79
2022/03/15 15:45:38;;;;;;;21.23;12.65;;;;;;;7.72;100.00;100244.22;12210317;19;20014;-79
2022/03/15 15:49:40;;;;;;;25.23;13.77;;;;;;;7.81;100.00;100242.06;12206907;19;20027;-79
2022/03/15 15:53:42;;;;;;;22.70;12.77;;;;;;;7.80;100.00;100250.53;12186235;19;20018;-79
2022/03/15 15:57:48;;;;;;;25.17;14.27;;;;;;;7.73;100.00;100248.66;12203579;19;20018;-79
2022/03/15 16:01:50;;;;;;;24.60;14.20;;;;;;;7.70;100.00;100256.47;12191027;19;20032;-80
2022/03/15 16:05:52;;;;;;;27.43;15.40;;;;;;;7.61;100.00;100255.06;12207073;19;20024;-80
2022/03/15 16:09:55;;;;;;;26.08;15.60;;;;;;;7.55;100.00;100256.78;12209985;19;20006;-80
2022/03/15 16:13:56;;;;;;;26.77;14.98;;;;;;;7.47;100.00;100262.53;12188508;19;20023;-80
2022/03/15 16:17:58;;;;;;;23.52;14.27;;;;;;;7.39;100.00;100263.59;12203718;19;20275;-78
2022/03/15 16:22:01;;;;;;;27.65;16.08;;;;;;;7.48;100.00;100270.53;12208122;19;20048;-79
2022/03/15 16:26:03;;;;;;;24.08;15.13;;;;;;;7.52;100.00;100279.16;12186640;19;20120;-79
2022/03/15 16:30:07;;;;;;;27.10;15.63;;;;;;;7.53;100.00;100286.34;12198298;19;20078;-79
2022/03/15 16:34:10;;;;;;;25.58;15.27;;;;;;;7.52;100.00;100295.59;12206734;19;20014;-79
2022/03/15 16:38:13;;;;;;;27.75;15.75;;;;;;;7.50;100.00;100304.06;12180173;19;20021;-79
2022/03/15 16:42:19;;;;;;;24.50;14.20;;;;;;;7.46;100.00;100305.53;12201749;19;20013;-79
2022/03/15 16:46:21;;;;;;;26.83;15.85;;;;;;;7.43;100.00;100303.22;12197818;19;20103;-79
2022/03/15 16:50:23;;;;;;;22.17;14.50;;;;;;;7.39;100.00;100301.16;12183365;19;20010;-79
2022/03/15 16:54:24;;;;;;;24.25;15.73;;;;;;;7.40;100.00;100292.69;12202223;19;20019;-79
2022/03/15 17:02:47;;;;;;;23.52;13.77;;;;;;;7.48;100.00;100295.19;12171127;19;20027;-78
2022/03/15 17:06:50;;;;;;;19.77;13.73;;;;;;;7.50;100.00;100303.22;12192828;19;20038;-78
2022/03/15 17:10:53;;;;;;;22.55;13.50;;;;;;;7.54;100.00;100309.94;12187775;19;20018;-79
2022/03/15 17:14:57;;;;;;;21.48;14.30;;;;;;;7.51;100.00;100315.88;12206412;19;20089;-79
2022/03/15 17:18:59;;;;;;;21.00;13.50;;;;;;;7.45;100.00;100314.00;12203345;19;20007;-79
2022/03/15 17:23:03;;;;;;;21.60;13.53;;;;;;;7.33;100.00;100310.25;12188867;19;20387;-79
2022/03/15 17:27:09;;;;;;;24.70;13.25;;;;;;;7.23;100.00;100324.41;12202363;19;20023;-78
2022/03/15 17:31:13;;;;;;;20.67;12.63;;;;;;;7.14;100.00;100339.38;12199660;19;20002;-78
2022/03/15 17:35:17;;;;;;;20.65;12.80;;;;;;;7.09;100.00;100340.03;12177751;19;20041;-78
2022/03/15 17:39:19;;;;;;;23.13;13.65;;;;;;;7.04;100.00;100361.75;12205701;19;20432;-78
2022/03/15 17:43:26;;;;;;;23.65;13.90;;;;;;;7.02;100.00;100361.13;12201555;19;20046;-79
2022/03/15 17:47:30;;;;;;;26.92;15.88;;;;;;;6.99;100.00;100370.63;12175953;19;20081;-79
2022/03/15 17:51:36;;;;;;;26.63;15.57;;;;;;;7.03;100.00;100374.63;12192695;19;20025;-79
2022/03/15 17:55:40;;;;;;;22.15;14.48;;;;;;;7.00;100.00;100380.53;12202919;19;20066;-78
2022/03/15 17:59:45;;;;;;;27.20;15.27;;;;;;;7.03;100.00;100391.06;12183999;19;20014;-79
2022/03/15 18:03:55;;;;;;;27.50;16.33;;;;;;;7.01;100.00;100393.16;12203270;19;20404;-79
2022/03/15 18:07:58;;;;;;;;;;;;;;;7.03;100.00;100406.66;12182863;19;20247;-79
2022/03/15 18:12:17;;;;;;;24.52;15.23;;;;;;;7.00;100.00;100407.94;12209006;19;19929;-80
2022/03/15 18:16:28;;;;;;;30.98;17.10;;;;;;;7.08;100.00;100415.09;12203527;19;20481;-79
2022/03/15 18:20:50;;;;;;;30.45;16.58;;;;;;;7.13;100.00;100409.81;12183653;19;20095;-79
2022/03/15 18:24:52;;;;;;;33.85;18.52;;;;;;;7.10;100.00;100417.59;12208281;19;20042;-80
2022/03/15 18:28:55;;;;;;;38.95;19.98;;;;;;;7.06;100.00;100411.72;12183374;19;20592;-79
2022/03/15 18:32:57;;;;;;;33.72;18.77;;;;;;;7.02;100.00;100415.91;12239714;19;20010;-80
2022/03/15 18:36:59;;;;;;;34.85;18.90;;;;;;;7.07;100.00;100418.88;12235484;19;20038;-79
2022/03/15 18:41:03;;;;;;;33.30;19.20;;;;;;;7.09;100.00;100427.75;12224721;19;20010;-81
2022/03/15 18:45:08;;;;;;;34.15;19.17;;;;;;;7.08;100.00;100429.63;12226981;19;22512;-79
2022/03/15 18:49:11;;;;;;;37.20;20.23;;;;;;;6.99;100.00;100432.78;12213661;19;20090;-80
2022/03/15 18:53:15;;;;;;;39.75;21.63;;;;;;;6.98;100.00;100442.91;12180564;19;20077;-79
2022/03/15 18:57:19;;;;;;;35.33;20.25;;;;;;;6.97;100.00;100443.13;12213494;19;20014;-79
2022/03/15 19:01:24;;;;;;;45.63;23.50;;;;;;;6.99;100.00;100449.22;12216040;19;20015;-79
2022/03/15 19:05:28;;;;;;;36.95;20.42;;;;;;;6.99;100.00;100451.97;12193549;19;20015;-83
2022/03/15 19:09:29;;;;;;;39.10;21.27;;;;;;;6.97;100.00;100454.94;12222148;19;20100;-79
2022/03/15 19:13:39;;;;;;;44.03;20.92;;;;;;;7.04;100.00;100463.97;12216297;19;20082;-79
2022/03/15 19:17:43;;;;;;;40.53;21.42;;;;;;;7.08;100.00;100465.28;12192951;19;20014;-79